createdAt,value
2018-05-10T00:01:08.363Z,14.93
2018-05-10T00:03:36.809Z,14.79
2018-05-10T00:06:05.373Z,14.70
2018-05-10T00:08:33.792Z,14.62
2018-05-10T00:11:02.191Z,14.43
2018-05-10T00:13:30.637Z,14.93
2018-05-10T00:15:59.036Z,15.01
2018-05-10T00:18:27.474Z,15.01
2018-05-10T00:20:55.933Z,15.06
2018-05-10T00:23:24.347Z,15.03
2018-05-10T00:25:52.744Z,14.42
2018-05-10T00:28:21.207Z,14.17
2018-05-10T00:30:49.610Z,14.25
2018-05-10T00:33:18.042Z,14.39
2018-05-10T00:35:46.668Z,13.95
2018-05-10T00:38:15.123Z,14.02
2018-05-10T00:40:43.534Z,14.24
2018-05-10T00:43:12.323Z,14.27
2018-05-10T00:45:40.736Z,14.23
2018-05-10T00:48:09.132Z,14.15
2018-05-10T00:50:37.756Z,13.94
2018-05-10T00:53:06.160Z,14.00
2018-05-10T00:55:34.565Z,13.75
2018-05-10T00:58:03.405Z,13.55
2018-05-10T01:00:31.824Z,13.43
2018-05-10T01:03:00.227Z,13.75
2018-05-10T01:05:28.675Z,13.91
2018-05-10T01:07:57.075Z,13.85
2018-05-10T01:10:25.501Z,13.83
2018-05-10T01:12:53.994Z,13.84
2018-05-10T01:15:22.412Z,13.85
2018-05-10T01:17:50.850Z,13.85
2018-05-10T01:20:19.339Z,13.87
2018-05-10T01:22:47.722Z,13.74
2018-05-10T01:25:16.143Z,13.88
2018-05-10T01:27:44.557Z,13.52
2018-05-10T01:30:12.953Z,13.41
2018-05-10T01:32:41.362Z,13.69
2018-05-10T01:35:21.892Z,13.69
2018-05-10T01:37:50.288Z,13.79
2018-05-10T01:40:18.696Z,13.89
2018-05-10T01:42:47.472Z,13.52
2018-05-10T01:45:15.895Z,13.66
2018-05-10T01:47:44.296Z,13.55
2018-05-10T01:50:12.748Z,13.57
2018-05-10T01:52:41.167Z,13.62
2018-05-10T01:55:09.590Z,13.73
2018-05-10T01:57:38.343Z,13.50
2018-05-10T02:00:06.747Z,13.61
2018-05-10T02:02:35.196Z,13.68
2018-05-10T02:05:04.096Z,13.63
2018-05-10T02:07:32.540Z,13.87
2018-05-10T02:10:00.956Z,13.68
2018-05-10T02:12:29.424Z,13.77
2018-05-10T02:14:57.848Z,13.89
2018-05-10T02:17:26.243Z,13.84
2018-05-10T02:19:55.207Z,13.73
2018-05-10T02:22:23.626Z,13.61
2018-05-10T02:24:52.080Z,13.77
2018-05-10T02:27:20.899Z,13.66
2018-05-10T02:29:49.326Z,13.52
2018-05-10T02:32:17.725Z,13.60
2018-05-10T02:34:46.497Z,13.71
2018-05-10T02:37:14.966Z,13.63
2018-05-10T02:39:43.394Z,13.65
2018-05-10T02:42:12.039Z,13.71
2018-05-10T02:44:40.447Z,13.66
2018-05-10T02:47:08.862Z,13.57
2018-05-10T02:49:37.578Z,13.58
2018-05-10T02:52:06.010Z,13.54
2018-05-10T02:54:34.433Z,13.52
2018-05-10T02:57:03.261Z,13.07
2018-05-10T02:59:31.684Z,13.23
2018-05-10T03:02:00.135Z,13.03
2018-05-10T03:04:28.589Z,12.92
2018-05-10T03:06:56.984Z,13.01
2018-05-10T03:09:25.387Z,13.05
2018-05-10T03:11:54.031Z,12.79
2018-05-10T03:14:22.463Z,13.01
2018-05-10T03:16:50.899Z,13.23
2018-05-10T03:19:19.678Z,13.13
2018-05-10T03:21:48.124Z,13.14
2018-05-10T03:24:16.560Z,13.45
2018-05-10T03:26:45.347Z,13.25
2018-05-10T03:29:13.766Z,13.22
2018-05-10T03:31:42.199Z,13.44
2018-05-10T03:34:11.005Z,13.39
2018-05-10T03:36:39.408Z,13.62
2018-05-10T03:39:07.825Z,13.70
2018-05-10T03:41:36.430Z,13.78
2018-05-10T03:44:04.871Z,13.81
2018-05-10T03:46:33.378Z,13.73
2018-05-10T03:49:02.193Z,13.84
2018-05-10T03:51:30.605Z,13.98
2018-05-10T03:53:59.018Z,14.06
2018-05-10T03:56:27.836Z,13.97
2018-05-10T03:58:56.274Z,13.84
2018-05-10T04:01:24.655Z,13.95
2018-05-10T04:07:09.322Z,14.23
2018-05-10T04:09:49.940Z,14.36
2018-05-10T04:12:18.411Z,14.32
2018-05-10T04:14:46.846Z,14.32
2018-05-10T04:17:15.498Z,14.43
2018-05-10T04:19:43.929Z,14.17
2018-05-10T04:22:12.349Z,14.12
2018-05-10T04:24:40.938Z,14.23
2018-05-10T04:27:09.343Z,14.41
2018-05-10T04:29:37.841Z,14.29
2018-05-10T04:32:06.598Z,14.09
2018-05-10T04:34:35.043Z,14.04
2018-05-10T04:37:03.483Z,14.14
2018-05-10T04:39:32.134Z,14.11
2018-05-10T04:42:00.655Z,14.21
2018-05-10T04:44:29.065Z,14.49
2018-05-10T04:46:57.920Z,14.86
2018-05-10T04:49:26.352Z,14.64
2018-05-10T04:51:54.739Z,14.72
2018-05-10T04:54:23.376Z,15.09
2018-05-10T04:56:51.791Z,15.08
2018-05-10T04:59:20.179Z,15.48
2018-05-10T05:01:48.963Z,15.39
2018-05-10T05:04:17.499Z,15.29
2018-05-10T05:06:46.103Z,15.82
2018-05-10T05:09:14.857Z,16.01
2018-05-10T05:11:43.250Z,16.06
2018-05-10T05:14:11.667Z,15.52
2018-05-10T05:16:40.692Z,16.71
2018-05-10T05:19:09.100Z,16.92
2018-05-10T05:21:37.579Z,17.00
2018-05-10T05:24:06.153Z,17.21
2018-05-10T05:26:34.579Z,17.31
2018-05-10T05:29:02.985Z,17.46
2018-05-10T05:31:31.720Z,17.61
2018-05-10T05:34:00.190Z,17.43
2018-05-10T05:36:28.653Z,17.63
2018-05-10T05:38:57.130Z,17.92
2018-05-10T05:41:25.598Z,17.99
2018-05-10T05:43:54.016Z,18.01
2018-05-10T05:46:22.459Z,18.14
2018-05-10T05:48:50.875Z,18.42
2018-05-10T05:51:19.349Z,18.65
2018-05-10T05:53:48.135Z,18.87
2018-05-10T05:56:16.550Z,19.26
2018-05-10T05:58:45.035Z,19.52
2018-05-10T06:01:13.865Z,19.90
2018-05-10T06:03:42.245Z,20.25
2018-05-10T06:06:10.645Z,20.36
2018-05-10T06:08:39.121Z,20.68
2018-05-10T06:11:07.563Z,20.40
2018-05-10T06:13:35.953Z,19.77
2018-05-10T06:16:04.830Z,19.85
2018-05-10T06:18:33.217Z,20.16
2018-05-10T06:21:01.614Z,20.11
2018-05-10T06:23:30.227Z,19.85
2018-05-10T06:25:58.624Z,20.23
2018-05-10T06:28:27.047Z,20.24
2018-05-10T06:30:55.689Z,20.35
2018-05-10T06:33:24.213Z,20.36
2018-05-10T06:35:52.637Z,20.51
2018-05-10T06:38:21.333Z,20.79
2018-05-10T06:40:49.735Z,21.19
2018-05-10T06:43:18.139Z,21.18
2018-05-10T06:45:46.763Z,21.56
2018-05-10T06:48:15.164Z,21.78
2018-05-10T06:50:43.558Z,22.19
2018-05-10T06:53:12.275Z,22.42
2018-05-10T06:55:40.704Z,22.84
2018-05-10T06:58:09.099Z,22.55
2018-05-10T07:00:37.952Z,22.85
2018-05-10T07:03:06.392Z,22.19
2018-05-10T07:05:34.793Z,21.52
2018-05-10T07:08:03.631Z,21.64
2018-05-10T07:10:32.039Z,21.00
2018-05-10T07:13:00.439Z,20.39
2018-05-10T07:15:28.892Z,20.60
2018-05-10T07:18:03.168Z,20.67
2018-05-10T07:20:31.849Z,20.90
2018-05-10T07:23:00.278Z,21.84
2018-05-10T07:25:28.787Z,22.45
2018-05-10T07:27:57.136Z,22.49
2018-05-10T07:30:25.547Z,22.80
2018-05-10T07:32:54.011Z,22.13
2018-05-10T07:35:22.766Z,21.70
2018-05-10T07:37:51.139Z,21.54
2018-05-10T07:40:19.533Z,20.03
2018-05-10T07:42:48.199Z,20.35
2018-05-10T07:45:16.623Z,20.42
2018-05-10T07:47:45.060Z,20.65
2018-05-10T07:50:13.867Z,21.23
2018-05-10T07:52:42.224Z,21.25
2018-05-10T07:55:10.629Z,21.99
2018-05-10T07:57:39.316Z,21.52
2018-05-10T08:00:07.691Z,20.73
2018-05-10T08:02:36.076Z,21.09
2018-05-10T08:05:04.855Z,21.68
2018-05-10T08:07:33.261Z,21.80
2018-05-10T08:10:01.682Z,20.69
2018-05-10T08:12:30.412Z,20.53
2018-05-10T08:14:58.815Z,20.52
2018-05-10T08:17:27.325Z,21.94
2018-05-10T08:19:56.071Z,22.91
2018-05-10T08:22:24.456Z,22.45
2018-05-10T08:24:53.076Z,22.87
2018-05-10T08:27:21.919Z,22.71
2018-05-10T08:29:50.369Z,22.07
2018-05-10T08:32:18.782Z,23.05
2018-05-10T08:34:47.570Z,23.09
2018-05-10T08:37:15.995Z,23.40
2018-05-10T08:39:44.410Z,23.06
2018-05-10T08:42:13.002Z,23.84
2018-05-10T08:44:41.399Z,23.94
2018-05-10T08:47:09.794Z,23.71
2018-05-10T08:49:38.605Z,24.01
2018-05-10T08:52:07.011Z,23.91
2018-05-10T08:54:35.396Z,23.56
2018-05-10T08:57:04.195Z,23.96
2018-05-10T08:59:32.574Z,24.00
2018-05-10T09:02:00.978Z,23.76
2018-05-10T09:04:29.743Z,22.59
2018-05-10T09:06:59.385Z,22.25
2018-05-10T09:09:27.763Z,22.02
2018-05-10T09:11:56.422Z,23.33
2018-05-10T09:14:24.818Z,23.28
2018-05-10T09:16:53.291Z,23.67
2018-05-10T09:19:22.071Z,23.66
2018-05-10T09:21:50.445Z,23.89
2018-05-10T09:24:19.714Z,24.21
2018-05-10T09:26:48.499Z,23.80
2018-05-10T09:29:16.991Z,22.90
2018-05-10T09:31:45.395Z,23.48
2018-05-10T09:34:14.196Z,24.04
2018-05-10T09:36:42.582Z,24.14
2018-05-10T09:39:11.060Z,24.62
2018-05-10T09:41:39.851Z,24.93
2018-05-10T09:44:08.238Z,23.99
2018-05-10T09:46:36.753Z,24.21
2018-05-10T09:49:05.210Z,24.78
2018-05-10T09:51:33.601Z,25.37
2018-05-10T09:54:02.016Z,25.59
2018-05-10T09:56:30.451Z,25.04
2018-05-10T09:58:58.879Z,24.43
2018-05-10T10:01:27.967Z,24.59
2018-05-10T10:03:56.352Z,25.35
2018-05-10T10:06:24.738Z,25.61
2018-05-10T10:08:53.956Z,26.35
2018-05-10T10:11:22.434Z,26.63
2018-05-10T10:13:50.828Z,26.26
2018-05-10T10:16:19.278Z,25.33
2018-05-10T10:18:47.712Z,25.62
2018-05-10T10:21:16.121Z,25.88
2018-05-10T10:23:44.542Z,25.31
2018-05-10T10:26:12.991Z,24.78
2018-05-10T10:28:41.470Z,24.77
2018-05-10T10:31:09.916Z,24.28
2018-05-10T10:33:38.302Z,24.85
2018-05-10T10:36:06.692Z,24.32
2018-05-10T10:38:35.129Z,23.92
2018-05-10T10:41:03.535Z,22.79
2018-05-10T10:43:31.992Z,22.88
2018-05-10T10:46:00.409Z,22.77
2018-05-10T10:48:28.855Z,21.94
2018-05-10T10:50:57.299Z,22.29
2018-05-10T10:53:25.790Z,22.20
2018-05-10T10:55:54.204Z,22.51
2018-05-10T10:58:22.619Z,22.51
2018-05-10T11:00:51.047Z,22.81
2018-05-10T11:03:19.439Z,22.08
2018-05-10T11:05:47.863Z,22.25
2018-05-10T11:08:16.383Z,22.46
2018-05-10T11:10:44.818Z,22.14
2018-05-10T11:13:13.255Z,21.50
2018-05-10T11:15:41.724Z,21.77
2018-05-10T11:18:10.203Z,22.36
2018-05-10T11:20:38.680Z,22.72
2018-05-10T11:23:07.150Z,22.95
2018-05-10T11:25:35.606Z,22.40
2018-05-10T11:28:04.080Z,22.94
2018-05-10T11:30:32.536Z,22.70
2018-05-10T11:33:01.068Z,22.48
2018-05-10T11:35:29.424Z,22.63
2018-05-10T11:37:57.858Z,22.59
2018-05-10T11:40:26.307Z,22.51
2018-05-10T11:42:54.881Z,23.35
2018-05-10T11:45:23.296Z,24.71
2018-05-10T11:47:51.750Z,25.18
2018-05-10T11:50:20.211Z,23.17
2018-05-10T11:52:48.731Z,22.46
2018-05-10T11:55:17.148Z,21.52
2018-05-10T11:57:45.666Z,20.68
2018-05-10T12:00:14.133Z,20.42
2018-05-10T12:02:42.571Z,20.27
2018-05-10T12:05:10.947Z,19.60
2018-05-10T12:07:39.412Z,19.25
2018-05-10T12:10:07.834Z,18.57
2018-05-10T12:12:36.243Z,18.95
2018-05-10T12:15:04.740Z,18.90
2018-05-10T12:17:33.125Z,18.95
2018-05-10T12:20:01.564Z,19.09
2018-05-10T12:22:29.987Z,19.32
2018-05-10T12:24:58.423Z,19.32
2018-05-10T12:27:27.119Z,19.53
2018-05-10T12:29:55.645Z,19.48
2018-05-10T12:32:24.148Z,19.85
2018-05-10T12:34:52.640Z,19.99
2018-05-10T12:37:21.033Z,20.42
2018-05-10T12:39:49.435Z,20.76
2018-05-10T12:42:17.871Z,20.09
2018-05-10T12:44:46.267Z,20.58
2018-05-10T12:47:14.682Z,20.52
2018-05-10T12:49:43.121Z,20.78
2018-05-10T12:52:11.516Z,21.12
2018-05-10T12:54:40.208Z,20.81
2018-05-10T12:57:08.641Z,20.58
2018-05-10T12:59:37.044Z,20.60
2018-05-10T13:02:05.472Z,20.58
2018-05-10T13:04:33.864Z,21.25
2018-05-10T13:07:02.312Z,21.65
2018-05-10T13:09:30.746Z,20.30
2018-05-10T13:11:59.280Z,20.14
2018-05-10T13:14:27.826Z,20.23
2018-05-10T13:16:56.262Z,20.16
2018-05-10T13:19:24.784Z,20.42
2018-05-10T13:21:53.225Z,19.66
2018-05-10T13:24:21.651Z,19.30
2018-05-10T13:26:50.036Z,19.12
2018-05-10T13:29:18.485Z,18.91
2018-05-10T13:31:46.924Z,18.78
2018-05-10T13:34:15.370Z,18.88
2018-05-10T13:36:43.794Z,19.01
2018-05-10T13:39:12.227Z,18.47
2018-05-10T13:41:40.632Z,18.49
2018-05-10T13:44:09.330Z,18.26
2018-05-10T13:46:37.723Z,18.35
2018-05-10T13:49:06.204Z,18.83
2018-05-10T13:51:34.606Z,18.90
2018-05-10T13:54:03.205Z,19.16
2018-05-10T13:56:31.635Z,19.02
2018-05-10T13:59:00.173Z,19.47
2018-05-10T14:01:28.611Z,19.17
2018-05-10T14:03:57.024Z,19.10
2018-05-10T14:06:25.435Z,18.96
2018-05-10T14:08:53.865Z,19.29
2018-05-10T14:11:22.288Z,19.40
2018-05-10T14:13:50.795Z,19.52
2018-05-10T14:16:19.209Z,19.48
2018-05-10T14:18:47.622Z,19.79
2018-05-10T14:21:16.092Z,19.54
2018-05-10T14:23:44.521Z,19.60
2018-05-10T14:26:12.991Z,19.35
2018-05-10T14:28:41.710Z,19.38
2018-05-10T14:31:10.169Z,19.55
2018-05-10T14:33:38.642Z,19.81
2018-05-10T14:36:07.044Z,19.60
2018-05-10T14:38:35.567Z,19.82
2018-05-10T14:41:04.051Z,19.63
2018-05-10T14:43:34.480Z,19.76
2018-05-10T14:46:04.263Z,19.98
2018-05-10T14:48:33.591Z,20.19
2018-05-10T14:51:02.214Z,20.33
2018-05-10T14:53:30.594Z,20.29
2018-05-10T14:55:59.012Z,19.88
2018-05-10T14:58:27.442Z,19.88
2018-05-10T15:00:55.878Z,19.61
2018-05-10T15:03:24.333Z,19.61
2018-05-10T15:05:52.749Z,19.33
2018-05-10T15:08:21.364Z,19.35
2018-05-10T15:10:49.931Z,19.12
2018-05-10T15:13:18.362Z,19.10
2018-05-10T15:15:46.978Z,18.96
2018-05-10T15:18:15.436Z,18.96
2018-05-10T15:20:43.850Z,18.93
2018-05-10T15:23:12.248Z,18.60
2018-05-10T15:25:40.622Z,18.87
2018-05-10T15:28:09.055Z,18.84
2018-05-10T15:30:37.510Z,19.09
2018-05-10T15:33:06.089Z,19.19
2018-05-10T15:35:34.548Z,19.23
2018-05-10T15:38:02.971Z,19.32
2018-05-10T15:40:31.407Z,19.33
2018-05-10T15:42:59.930Z,19.23
2018-05-10T15:45:29.284Z,19.46
2018-05-10T15:47:57.737Z,19.48
2018-05-10T15:50:26.162Z,20.16
2018-05-10T15:52:54.580Z,20.17
2018-05-10T15:55:23.007Z,19.73
2018-05-10T15:57:51.388Z,19.77
2018-05-10T16:00:19.832Z,20.01
2018-05-10T16:02:48.277Z,19.78
2018-05-10T16:05:16.752Z,19.85
2018-05-10T16:07:45.249Z,19.92
2018-05-10T16:10:13.718Z,20.27
2018-05-10T16:12:42.171Z,21.17
2018-05-10T16:15:10.574Z,20.90
2018-05-10T16:17:38.987Z,20.64
2018-05-10T16:20:07.460Z,20.03
2018-05-10T16:22:35.861Z,19.69
2018-05-10T16:25:04.375Z,19.70
2018-05-10T16:27:32.774Z,19.44
2018-05-10T16:30:01.217Z,20.35
2018-05-10T16:32:29.851Z,21.96
2018-05-10T16:34:58.213Z,23.75
2018-05-10T16:37:26.669Z,24.80
2018-05-10T16:39:55.105Z,23.56
2018-05-10T16:42:23.516Z,22.19
2018-05-10T16:44:51.953Z,21.35
2018-05-10T16:47:20.359Z,20.46
2018-05-10T16:49:48.836Z,20.04
2018-05-10T16:52:17.235Z,20.35
2018-05-10T16:54:45.627Z,20.06
2018-05-10T16:57:14.064Z,19.67
2018-05-10T16:59:42.507Z,19.11
2018-05-10T17:02:10.918Z,18.93
2018-05-10T17:04:39.370Z,18.96
2018-05-10T17:07:07.767Z,18.74
2018-05-10T17:09:36.193Z,18.76
2018-05-10T17:12:04.618Z,18.37
2018-05-10T17:14:33.074Z,18.48
2018-05-10T17:17:01.471Z,18.05
2018-05-10T17:19:29.914Z,18.08
2018-05-10T17:21:58.364Z,17.92
2018-05-10T17:24:26.788Z,17.90
2018-05-10T17:26:55.204Z,17.79
2018-05-10T17:29:23.648Z,17.90
2018-05-10T17:31:52.096Z,17.83
2018-05-10T17:34:20.509Z,18.06
2018-05-10T17:36:48.895Z,17.95
2018-05-10T17:39:17.367Z,17.80
2018-05-10T17:41:45.860Z,17.80
2018-05-10T17:44:14.257Z,17.90
2018-05-10T17:46:42.720Z,17.72
2018-05-10T17:49:11.215Z,17.60
2018-05-10T17:51:39.629Z,17.53
2018-05-10T17:54:08.046Z,17.70
2018-05-10T17:56:36.483Z,17.70
2018-05-10T17:59:04.892Z,17.58
2018-05-10T18:01:33.337Z,17.74
2018-05-10T18:04:01.739Z,17.73
2018-05-10T18:06:30.167Z,17.61
2018-05-10T18:08:58.571Z,17.56
2018-05-10T18:11:27.469Z,17.41
2018-05-10T18:13:56.049Z,17.59
2018-05-10T18:16:24.393Z,17.49
2018-05-10T18:18:52.825Z,17.64
2018-05-10T18:21:21.219Z,17.57
2018-05-10T18:23:49.638Z,17.60
2018-05-10T18:26:18.027Z,17.46
2018-05-10T18:28:46.481Z,17.29
2018-05-10T18:31:14.875Z,17.13
2018-05-10T18:33:43.257Z,16.97
2018-05-10T18:36:11.695Z,17.03
2018-05-10T18:38:40.156Z,16.95
2018-05-10T18:41:08.585Z,16.85
2018-05-10T18:43:36.990Z,16.57
2018-05-10T18:46:05.443Z,16.73
2018-05-10T18:48:33.868Z,16.79
2018-05-10T18:51:02.286Z,16.56
2018-05-10T18:53:30.684Z,16.42
2018-05-10T18:55:59.085Z,16.61
2018-05-10T18:58:27.540Z,16.49
2018-05-10T19:00:55.924Z,16.32
2018-05-10T19:03:24.356Z,16.46
2018-05-10T19:05:52.830Z,16.54
2018-05-10T19:08:21.220Z,16.26
2018-05-10T19:10:49.648Z,16.48
2018-05-10T19:13:18.084Z,16.51
2018-05-10T19:15:46.497Z,16.47
2018-05-10T19:18:14.891Z,16.38
2018-05-10T19:20:43.321Z,16.23
2018-05-10T19:23:11.758Z,16.24
2018-05-10T19:25:40.190Z,16.38
2018-05-10T19:28:08.606Z,16.40
2018-05-10T19:30:36.991Z,16.36
2018-05-10T19:33:05.452Z,16.41
2018-05-10T19:35:33.840Z,16.41
2018-05-10T19:38:02.238Z,16.17
2018-05-10T19:40:30.661Z,16.14
2018-05-10T19:42:59.063Z,16.16
2018-05-10T19:45:27.523Z,16.19
2018-05-10T19:47:55.902Z,16.13
2018-05-10T19:50:24.285Z,16.10
2018-05-10T19:52:52.699Z,16.20
2018-05-10T19:55:21.104Z,16.18
2018-05-10T19:57:49.486Z,16.13
2018-05-10T20:00:17.904Z,16.21
2018-05-10T20:02:46.328Z,16.19
2018-05-10T20:05:14.754Z,16.25
2018-05-10T20:07:43.187Z,16.27
2018-05-10T20:10:11.591Z,16.15
2018-05-10T20:12:40.034Z,16.12
2018-05-10T20:15:08.418Z,16.23
2018-05-10T20:17:36.910Z,16.06
2018-05-10T20:20:05.342Z,16.09
2018-05-10T20:22:33.757Z,16.04
2018-05-10T20:25:02.252Z,16.02
2018-05-10T20:27:30.630Z,16.02
2018-05-10T20:29:59.061Z,15.61
2018-05-10T20:32:27.552Z,15.95
2018-05-10T20:34:55.935Z,15.76
2018-05-10T20:37:24.317Z,15.67
2018-05-10T20:39:52.738Z,15.67
2018-05-10T20:42:21.155Z,15.38
2018-05-10T20:44:49.608Z,15.55
2018-05-10T20:47:18.007Z,15.52
2018-05-10T20:49:46.421Z,15.42
2018-05-10T20:52:14.842Z,15.48
2018-05-10T20:54:43.240Z,15.32
2018-05-10T20:57:11.683Z,15.48
2018-05-10T20:59:40.102Z,15.72
2018-05-10T21:02:08.514Z,15.61
2018-05-10T21:04:36.900Z,15.81
2018-05-10T21:07:05.330Z,15.76
2018-05-10T21:09:33.781Z,15.84
2018-05-10T21:12:02.201Z,15.74
2018-05-10T21:14:30.631Z,15.60
2018-05-10T21:16:59.002Z,15.51
2018-05-10T21:19:27.400Z,15.65
2018-05-10T21:21:55.843Z,15.66
2018-05-10T21:24:24.221Z,15.70
2018-05-10T21:26:52.758Z,15.76
2018-05-10T21:29:21.143Z,15.83
2018-05-10T21:31:49.516Z,16.03
2018-05-10T21:34:17.969Z,15.89
2018-05-10T21:36:46.439Z,15.90
2018-05-10T21:39:14.847Z,15.92
2018-05-10T21:41:43.235Z,16.06
2018-05-10T21:44:11.648Z,15.92
2018-05-10T21:46:40.051Z,15.86
2018-05-10T21:49:20.564Z,16.06
2018-05-10T21:51:48.978Z,16.14
2018-05-10T21:54:17.383Z,16.07
2018-05-10T21:56:45.815Z,16.32
2018-05-10T21:59:14.228Z,16.25
2018-05-10T22:01:42.648Z,16.26
2018-05-10T22:04:11.067Z,16.17
2018-05-10T22:06:39.507Z,16.44
2018-05-10T22:09:07.945Z,16.05
2018-05-10T22:11:36.309Z,16.53
2018-05-10T22:14:04.700Z,16.59
2018-05-10T22:16:33.135Z,16.46
2018-05-10T22:19:01.560Z,16.45
2018-05-10T22:21:29.995Z,16.60
2018-05-10T22:23:58.411Z,16.68
2018-05-10T22:26:27.303Z,16.73
2018-05-10T22:28:55.751Z,16.68
2018-05-10T22:31:24.136Z,16.50
2018-05-10T22:33:52.564Z,16.60
2018-05-10T22:36:20.956Z,16.63
2018-05-10T22:38:49.402Z,16.54
2018-05-10T22:41:17.784Z,16.59
2018-05-10T22:43:46.207Z,16.70
2018-05-10T22:46:14.631Z,16.67
2018-05-10T22:48:43.005Z,16.64
2018-05-10T22:51:11.435Z,16.54
2018-05-10T22:53:39.827Z,16.27
2018-05-10T22:56:08.212Z,16.25
2018-05-10T22:58:36.627Z,15.97
2018-05-10T23:01:05.063Z,15.72
2018-05-10T23:03:33.468Z,15.84
2018-05-10T23:06:01.938Z,15.93
2018-05-10T23:08:30.353Z,15.85
2018-05-10T23:10:58.796Z,15.94
2018-05-10T23:13:27.201Z,16.00
2018-05-10T23:15:55.669Z,16.05
2018-05-10T23:18:24.059Z,16.07
2018-05-10T23:20:52.426Z,16.08
2018-05-10T23:23:20.841Z,16.15
2018-05-10T23:25:49.262Z,16.11
2018-05-10T23:28:17.677Z,15.93
2018-05-10T23:30:46.053Z,15.69
2018-05-10T23:33:14.455Z,15.60
2018-05-10T23:35:42.842Z,15.59
2018-05-10T23:38:11.276Z,15.70
2018-05-10T23:40:39.658Z,15.88
2018-05-10T23:43:08.100Z,15.80
2018-05-10T23:45:36.461Z,15.76
2018-05-10T23:48:04.870Z,15.59
2018-05-10T23:50:33.288Z,15.48
2018-05-10T23:53:01.726Z,15.45
2018-05-10T23:55:30.151Z,15.32
2018-05-10T23:57:58.536Z,15.45
